createdAt,value
2023-04-03T00:01:47.994Z,7.02
2023-04-03T00:04:14.817Z,7.00
2023-04-03T00:06:41.408Z,6.96
2023-04-03T00:09:09.457Z,6.90
2023-04-03T00:11:37.238Z,6.89
2023-04-03T00:14:03.806Z,6.87
2023-04-03T00:16:33.131Z,6.88
2023-04-03T00:18:59.706Z,6.91
2023-04-03T00:21:29.140Z,6.85
2023-04-03T00:23:55.736Z,6.85
2023-04-03T00:26:22.397Z,6.87
2023-04-03T00:28:48.933Z,6.85
2023-04-03T00:31:16.778Z,6.80
2023-04-03T00:33:43.694Z,6.74
2023-04-03T00:36:11.547Z,6.68
2023-04-03T00:38:38.268Z,6.64
2023-04-03T00:41:05.691Z,6.67
2023-04-03T00:43:32.401Z,6.65
2023-04-03T00:45:59.684Z,6.62
2023-04-03T00:48:46.079Z,6.66
2023-04-03T00:51:17.757Z,6.68
2023-04-03T00:53:49.687Z,6.71
2023-04-03T00:56:23.700Z,6.67
2023-04-03T00:58:59.048Z,6.65
2023-04-03T01:01:27.221Z,6.61
2023-04-03T01:03:53.882Z,6.59
2023-04-03T01:06:36.353Z,6.60
2023-04-03T01:09:03.098Z,6.63
2023-04-03T01:11:31.407Z,6.58
2023-04-03T01:14:02.619Z,6.56
2023-04-03T01:16:36.657Z,6.55
2023-04-03T01:19:04.415Z,6.48
2023-04-03T01:22:08.499Z,6.44
2023-04-03T01:24:38.862Z,6.48
2023-04-03T01:27:06.891Z,6.56
2023-04-03T01:29:39.462Z,6.51
2023-04-03T01:32:06.135Z,6.53
2023-04-03T01:34:35.534Z,6.57
2023-04-03T01:37:02.131Z,6.55
2023-04-03T01:39:28.698Z,6.56
2023-04-03T01:41:58.222Z,6.56
2023-04-03T01:44:25.668Z,6.56
2023-04-03T01:46:52.242Z,6.58
2023-04-03T01:49:18.800Z,6.60
2023-04-03T01:51:45.500Z,6.60
2023-04-03T01:54:12.173Z,6.65
2023-04-03T01:56:40.158Z,6.57
2023-04-03T01:59:06.764Z,6.59
2023-04-03T02:01:36.293Z,6.56
2023-04-03T02:04:02.917Z,6.64
2023-04-03T02:06:29.636Z,6.60
2023-04-03T02:08:56.258Z,6.52
2023-04-03T02:11:27.993Z,6.52
2023-04-03T02:14:03.406Z,6.55
2023-04-03T02:16:29.987Z,6.61
2023-04-03T02:18:59.585Z,6.61
2023-04-03T02:21:26.151Z,6.62
2023-04-03T02:23:52.749Z,6.62
2023-04-03T02:26:21.995Z,6.63
2023-04-03T02:28:51.268Z,6.68
2023-04-03T02:31:18.503Z,6.67
2023-04-03T02:33:45.214Z,6.62
2023-04-03T02:36:11.890Z,6.63
2023-04-03T02:38:38.414Z,6.64
2023-04-03T02:41:06.471Z,6.62
2023-04-03T02:43:33.331Z,6.65
2023-04-03T02:46:02.910Z,6.68
2023-04-03T02:48:29.458Z,6.62
2023-04-03T02:50:56.314Z,6.60
2023-04-03T02:53:23.581Z,6.62
2023-04-03T02:55:50.508Z,6.64
2023-04-03T02:58:22.787Z,6.65
2023-04-03T03:00:57.406Z,6.64
2023-04-03T03:03:24.094Z,6.64
2023-04-03T03:05:50.887Z,6.63
2023-04-03T03:08:21.292Z,6.69
2023-04-03T03:10:49.250Z,6.69
2023-04-03T03:13:15.840Z,6.59
2023-04-03T03:15:42.417Z,6.62
2023-04-03T03:18:08.950Z,6.64
2023-04-03T03:20:35.784Z,6.66
2023-04-03T03:23:05.110Z,6.65
2023-04-03T03:25:36.197Z,6.63
2023-04-03T03:28:02.924Z,6.69
2023-04-03T03:30:29.469Z,6.68
2023-04-03T03:33:01.818Z,6.64
2023-04-03T03:35:28.449Z,6.69
2023-04-03T03:37:55.049Z,6.66
2023-04-03T03:40:24.385Z,6.64
2023-04-03T03:42:56.276Z,6.65
2023-04-03T03:45:22.854Z,6.59
2023-04-03T03:47:49.443Z,6.59
2023-04-03T03:50:17.300Z,6.61
2023-04-03T03:52:43.951Z,6.61
2023-04-03T03:55:10.507Z,6.67
2023-04-03T03:57:37.469Z,6.62
2023-04-03T04:00:04.955Z,6.67
2023-04-03T04:02:31.711Z,6.65
2023-04-03T04:05:00.251Z,6.65
2023-04-03T04:07:30.363Z,6.61
2023-04-03T04:09:56.875Z,6.66
2023-04-03T04:12:25.720Z,6.62
2023-04-03T04:14:52.221Z,6.60
2023-04-03T04:17:20.109Z,6.60
2023-04-03T04:19:46.788Z,6.62
2023-04-03T04:22:13.377Z,6.62
2023-04-03T04:24:40.046Z,6.61
2023-04-03T04:27:06.696Z,6.63
2023-04-03T04:29:38.436Z,6.69
2023-04-03T04:32:05.062Z,6.82
2023-04-03T04:34:33.817Z,6.78
2023-04-03T04:37:00.521Z,6.76
2023-04-03T04:39:29.124Z,6.85
2023-04-03T04:41:55.746Z,6.83
2023-04-03T04:44:22.329Z,6.93
2023-04-03T04:46:48.953Z,6.94
2023-04-03T04:49:26.104Z,6.95
2023-04-03T04:51:54.848Z,6.94
2023-04-03T04:54:29.559Z,7.00
2023-04-03T04:56:58.172Z,7.03
2023-04-03T04:59:27.129Z,7.07
2023-04-03T05:01:56.038Z,7.11
2023-04-03T05:04:24.836Z,7.07
2023-04-03T05:06:58.575Z,7.06
2023-04-03T05:09:27.867Z,7.03
2023-04-03T05:11:57.650Z,7.11
2023-04-03T05:14:24.550Z,7.10
2023-04-03T05:16:54.801Z,7.09
2023-04-03T05:19:22.536Z,7.06
2023-04-03T05:21:51.411Z,7.06
2023-04-03T05:24:20.903Z,7.07
2023-04-03T05:26:47.539Z,7.06
2023-04-03T05:29:14.520Z,7.09
2023-04-03T05:31:44.414Z,7.13
2023-04-03T05:34:11.099Z,7.16
2023-04-03T05:36:43.544Z,7.18
2023-04-03T05:39:13.264Z,7.20
2023-04-03T05:41:41.589Z,7.22
2023-04-03T05:44:09.194Z,7.20
2023-04-03T05:46:36.378Z,7.20
2023-04-03T05:49:06.936Z,7.23
2023-04-03T05:51:35.964Z,7.26
2023-04-03T05:54:21.529Z,7.26
2023-04-03T05:56:48.157Z,7.25
2023-04-03T05:59:14.799Z,7.22
2023-04-03T06:01:41.670Z,7.23
2023-04-03T06:04:10.110Z,7.36
2023-04-03T06:06:46.431Z,7.52
2023-04-03T06:09:16.438Z,7.66
2023-04-03T06:11:42.959Z,7.68
2023-04-03T06:14:12.007Z,7.68
2023-04-03T06:16:39.968Z,7.74
2023-04-03T06:19:09.100Z,7.74
2023-04-03T06:21:36.853Z,7.72
2023-04-03T06:26:52.450Z,7.72
2023-04-03T06:29:19.409Z,7.81
2023-04-03T06:31:50.574Z,7.91
2023-04-03T06:34:23.404Z,7.95
2023-04-03T06:36:51.727Z,7.96
2023-04-03T06:39:23.651Z,7.96
2023-04-03T06:41:53.032Z,8.01
2023-04-03T06:44:21.074Z,8.10
2023-04-03T06:46:47.845Z,8.05
2023-04-03T06:49:17.434Z,7.97
2023-04-03T06:51:44.158Z,8.02
2023-04-03T06:54:12.984Z,8.05
2023-04-03T06:56:39.480Z,8.01
2023-04-03T06:59:14.403Z,7.89
2023-04-03T07:01:47.013Z,7.87
2023-04-03T07:04:16.251Z,7.96
2023-04-03T07:06:43.689Z,8.04
2023-04-03T07:09:11.987Z,8.17
2023-04-03T07:11:38.538Z,8.25
2023-04-03T07:14:04.989Z,8.42
2023-04-03T07:16:32.117Z,8.56
2023-04-03T07:18:58.830Z,8.56
2023-04-03T07:21:25.358Z,8.60
2023-04-03T07:23:51.802Z,8.72
2023-04-03T07:26:18.911Z,8.78
2023-04-03T07:28:53.069Z,8.79
2023-04-03T07:31:19.806Z,8.87
2023-04-03T07:33:48.733Z,8.88
2023-04-03T07:36:16.936Z,9.01
2023-04-03T07:38:46.282Z,8.97
2023-04-03T07:41:16.923Z,9.02
2023-04-03T07:43:44.617Z,9.05
2023-04-03T07:46:11.850Z,9.15
2023-04-03T07:48:38.410Z,9.27
2023-04-03T07:51:05.942Z,9.20
2023-04-03T07:53:37.752Z,9.12
2023-04-03T07:56:04.308Z,9.11
2023-04-03T07:58:34.217Z,9.14
2023-04-03T08:01:00.900Z,9.28
2023-04-03T08:03:29.043Z,9.45
2023-04-03T08:06:00.515Z,9.41
2023-04-03T08:08:27.364Z,9.42
2023-04-03T08:10:57.049Z,9.38
2023-04-03T08:13:31.532Z,9.38
2023-04-03T08:15:58.689Z,9.32
2023-04-03T08:18:25.747Z,9.25
2023-04-03T08:20:56.116Z,9.13
2023-04-03T08:23:23.715Z,9.17
2023-04-03T08:25:52.679Z,9.21
2023-04-03T08:28:19.665Z,9.33
2023-04-03T08:30:53.106Z,9.32
2023-04-03T08:33:21.877Z,9.43
2023-04-03T08:35:49.628Z,9.53
2023-04-03T08:41:14.138Z,9.80
2023-04-03T08:44:01.914Z,10.06
2023-04-03T08:46:50.013Z,10.17
2023-04-03T08:49:26.455Z,10.49
2023-04-03T08:51:55.993Z,10.60
2023-04-03T08:54:30.052Z,10.84
2023-04-03T08:56:57.029Z,11.01
2023-04-03T08:59:28.969Z,10.90
2023-04-03T09:01:55.954Z,10.86
2023-04-03T09:04:31.938Z,10.88
2023-04-03T09:07:28.078Z,10.85
2023-04-03T09:09:55.375Z,10.99
2023-04-03T09:12:40.899Z,11.07
2023-04-03T09:15:35.530Z,11.18
2023-04-03T09:18:15.640Z,11.06
2023-04-03T09:20:42.661Z,11.24
2023-04-03T09:23:31.093Z,11.30
2023-04-03T09:26:12.898Z,11.27
2023-04-03T09:28:49.407Z,11.30
2023-04-03T09:31:24.959Z,11.24
2023-04-03T09:33:53.754Z,11.08
2023-04-03T09:36:39.110Z,11.12
2023-04-03T09:39:13.753Z,11.27
2023-04-03T09:41:49.701Z,11.51
2023-04-03T09:44:28.853Z,11.61
2023-04-03T09:46:55.460Z,11.71
2023-04-03T09:49:22.500Z,11.79
2023-04-03T09:51:52.695Z,11.68
2023-04-03T09:54:33.400Z,11.73
2023-04-03T09:57:05.002Z,11.75
2023-04-03T09:59:32.591Z,11.89
2023-04-03T10:02:09.335Z,11.94
2023-04-03T10:04:42.423Z,11.89
2023-04-03T10:07:28.086Z,11.69
2023-04-03T10:10:07.187Z,11.63
2023-04-03T10:12:35.437Z,11.49
2023-04-03T10:15:02.228Z,11.32
2023-04-03T10:17:38.449Z,11.25
2023-04-03T10:20:04.946Z,11.43
2023-04-03T10:22:38.093Z,11.70
2023-04-03T10:25:04.637Z,11.84
2023-04-03T10:27:43.364Z,12.02
2023-04-03T10:30:28.653Z,12.11
2023-04-03T10:33:14.872Z,12.22
2023-04-03T10:35:51.798Z,12.37
2023-04-03T10:38:20.815Z,12.18
2023-04-03T10:41:21.403Z,12.38
2023-04-03T10:44:09.064Z,12.39
2023-04-03T10:46:37.982Z,12.47
2023-04-03T10:49:22.809Z,12.53
2023-04-03T10:51:52.148Z,12.75
2023-04-03T10:54:27.813Z,12.80
2023-04-03T10:57:11.577Z,12.73
2023-04-03T10:59:49.390Z,12.53
2023-04-03T11:02:25.299Z,12.55
2023-04-03T11:05:24.387Z,12.28
2023-04-03T11:07:53.217Z,12.24
2023-04-03T11:10:44.725Z,12.21
2023-04-03T11:13:16.362Z,12.28
2023-04-03T11:15:44.067Z,12.31
2023-04-03T11:18:20.514Z,12.37
2023-04-03T11:21:08.043Z,12.22
2023-04-03T11:23:48.793Z,12.15
2023-04-03T11:26:26.567Z,12.12
2023-04-03T11:28:57.087Z,12.38
2023-04-03T11:31:33.013Z,12.42
2023-04-03T11:33:59.564Z,12.25
2023-04-03T11:36:30.228Z,12.30
2023-04-03T11:39:11.412Z,12.11
2023-04-03T11:41:38.451Z,11.96
2023-04-03T11:44:27.470Z,11.89
2023-04-03T11:47:02.554Z,12.11
2023-04-03T11:49:51.467Z,12.45
2023-04-03T11:52:43.833Z,12.52
2023-04-03T11:55:20.419Z,12.51
2023-04-03T11:58:04.936Z,12.69
2023-04-03T12:00:54.444Z,12.78
2023-04-03T12:03:26.912Z,12.76
2023-04-03T12:05:59.028Z,12.75
2023-04-03T12:08:51.178Z,12.77
2023-04-03T12:11:33.336Z,13.48
2023-04-03T12:14:01.571Z,13.61
2023-04-03T12:16:54.611Z,13.59
2023-04-03T12:19:41.128Z,13.70
2023-04-03T12:22:12.765Z,14.10
2023-04-03T12:24:40.913Z,14.13
2023-04-03T12:27:18.250Z,13.99
2023-04-03T12:29:53.491Z,13.51
2023-04-03T12:32:21.277Z,13.09
2023-04-03T12:34:51.518Z,12.91
2023-04-03T12:37:39.204Z,12.71
2023-04-03T12:40:08.809Z,12.68
2023-04-03T12:43:04.416Z,12.68
2023-04-03T12:46:03.187Z,12.89
2023-04-03T12:48:31.436Z,13.14
2023-04-03T12:50:59.371Z,13.34
2023-04-03T12:54:10.733Z,13.30
2023-04-03T12:56:42.010Z,13.61
2023-04-03T12:59:14.615Z,14.06
2023-04-03T13:01:46.617Z,13.99
2023-04-03T13:04:18.108Z,13.91
2023-04-03T13:06:45.188Z,13.87
2023-04-03T13:09:26.553Z,13.54
2023-04-03T13:12:00.305Z,13.34
2023-04-03T13:14:29.711Z,13.50
2023-04-03T13:17:01.201Z,13.22
2023-04-03T13:19:29.826Z,13.34
2023-04-03T13:22:05.440Z,13.16
2023-04-03T13:24:33.878Z,13.35
2023-04-03T13:27:01.016Z,13.66
2023-04-03T13:29:31.409Z,13.89
2023-04-03T13:31:59.217Z,13.57
2023-04-03T13:34:27.604Z,13.91
2023-04-03T13:36:54.577Z,14.71
2023-04-03T13:39:31.804Z,14.71
2023-04-03T13:41:59.861Z,15.24
2023-04-03T13:44:32.608Z,15.02
2023-04-03T13:49:51.850Z,14.53
2023-04-03T13:52:31.375Z,13.99
2023-04-03T13:55:00.882Z,13.97
2023-04-03T13:57:34.836Z,14.25
2023-04-03T14:00:23.186Z,14.37
2023-04-03T14:02:52.571Z,14.51
2023-04-03T14:05:22.420Z,14.87
2023-04-03T14:07:48.965Z,14.44
2023-04-03T14:10:15.582Z,14.21
2023-04-03T14:12:43.782Z,14.12
2023-04-03T14:15:20.912Z,13.80
2023-04-03T14:17:50.086Z,14.05
2023-04-03T14:20:21.616Z,13.62
2023-04-03T14:22:48.409Z,13.52
2023-04-03T14:25:15.580Z,14.09
2023-04-03T14:27:43.718Z,14.66
2023-04-03T14:30:14.983Z,14.80
2023-04-03T14:32:42.490Z,14.68
2023-04-03T14:35:12.292Z,14.42
2023-04-03T14:37:41.286Z,14.66
2023-04-03T14:40:08.853Z,14.29
2023-04-03T14:42:37.398Z,14.64
2023-04-03T14:45:10.273Z,15.25
2023-04-03T14:47:40.431Z,15.51
2023-04-03T14:50:08.538Z,15.73
2023-04-03T14:52:40.613Z,15.31
2023-04-03T14:55:10.290Z,15.20
2023-04-03T14:57:37.827Z,15.51
2023-04-03T15:00:05.606Z,15.69
2023-04-03T15:02:34.806Z,15.53
2023-04-03T15:05:03.995Z,16.20
2023-04-03T15:07:34.480Z,15.71
2023-04-03T15:10:08.749Z,15.55
2023-04-03T15:12:39.129Z,15.03
2023-04-03T15:15:11.161Z,14.98
2023-04-03T15:17:40.739Z,14.95
2023-04-03T15:20:22.469Z,14.84
2023-04-03T15:22:49.614Z,15.47
2023-04-03T15:25:22.844Z,14.90
2023-04-03T15:27:49.487Z,14.93
2023-04-03T15:30:20.779Z,14.76
2023-04-03T15:32:48.185Z,15.29
2023-04-03T15:35:15.018Z,15.72
2023-04-03T15:37:48.174Z,14.80
2023-04-03T15:40:19.284Z,13.99
2023-04-03T15:42:45.894Z,12.83
2023-04-03T15:45:12.593Z,12.89
2023-04-03T15:47:39.207Z,12.62
2023-04-03T15:50:10.684Z,12.37
2023-04-03T15:52:39.969Z,14.23
2023-04-03T15:55:07.968Z,12.88
2023-04-03T16:00:07.505Z,12.33
2023-04-03T16:02:36.629Z,12.00
2023-04-03T16:08:17.513Z,11.20
2023-04-03T16:10:50.004Z,10.87
2023-04-03T16:13:16.576Z,10.87
2023-04-03T16:15:43.296Z,10.71
2023-04-03T16:18:13.216Z,10.82
2023-04-03T16:20:42.676Z,10.46
2023-04-03T16:23:09.130Z,10.23
2023-04-03T16:25:36.207Z,10.16
2023-04-03T16:28:02.704Z,10.35
2023-04-03T16:30:29.618Z,10.32
2023-04-03T16:32:57.544Z,10.30
2023-04-03T16:35:27.226Z,9.99
2023-04-03T16:37:56.442Z,9.85
2023-04-03T16:40:24.913Z,9.78
2023-04-03T16:42:51.497Z,9.81
2023-04-03T16:45:18.201Z,9.79
2023-04-03T16:47:44.792Z,9.73
2023-04-03T16:50:19.083Z,9.57
2023-04-03T16:52:48.724Z,9.72
2023-04-03T16:55:16.923Z,9.55
2023-04-03T16:57:45.985Z,9.40
2023-04-03T17:00:12.783Z,9.47
2023-04-03T17:02:51.207Z,9.51
2023-04-03T17:05:17.941Z,9.49
2023-04-03T17:07:48.030Z,9.53
2023-04-03T17:10:15.661Z,9.48
2023-04-03T17:12:42.416Z,9.54
2023-04-03T17:15:09.312Z,9.44
2023-04-03T17:17:38.825Z,9.37
2023-04-03T17:20:06.624Z,9.57
2023-04-03T17:22:41.103Z,9.45
2023-04-03T17:25:08.278Z,9.32
2023-04-03T17:27:34.885Z,9.21
2023-04-03T17:30:02.716Z,9.22
2023-04-03T17:35:16.740Z,9.30
2023-04-03T17:37:49.614Z,9.27
2023-04-03T17:40:23.193Z,9.22
2023-04-03T17:56:44.104Z,8.69
2023-04-03T17:59:16.360Z,8.89
2023-04-03T18:01:49.281Z,9.04
2023-04-03T18:07:15.317Z,8.82
2023-04-03T18:15:29.951Z,8.95
2023-04-03T18:18:03.727Z,8.90
2023-04-03T18:20:33.932Z,8.68
2023-04-03T18:23:05.348Z,8.66
2023-04-03T18:28:09.380Z,8.81
2023-04-03T18:30:36.537Z,8.90
2023-04-03T18:33:10.503Z,8.95
2023-04-03T18:35:38.276Z,8.93
2023-04-03T18:38:04.941Z,8.93
2023-04-03T18:40:35.262Z,8.98
2023-04-03T18:43:11.900Z,9.05
2023-04-03T18:45:41.386Z,9.08
2023-04-03T18:48:14.196Z,8.97
2023-04-03T18:53:21.823Z,8.82
2023-04-03T18:55:48.497Z,8.58
2023-04-03T18:58:17.334Z,8.50
2023-04-03T19:00:44.028Z,8.37
2023-04-03T19:03:13.852Z,8.41
2023-04-03T19:05:45.204Z,8.40
2023-04-03T19:08:12.057Z,8.24
2023-04-03T19:10:39.655Z,8.17
2023-04-03T19:13:10.088Z,8.23
2023-04-03T19:15:36.663Z,8.28
2023-04-03T19:18:06.212Z,8.27
2023-04-03T19:20:36.166Z,8.17
2023-04-03T19:23:03.036Z,8.19
2023-04-03T19:25:29.629Z,8.38
2023-04-03T19:27:56.203Z,8.41
2023-04-03T19:30:24.721Z,8.34
2023-04-03T19:32:52.786Z,8.30
2023-04-03T19:35:19.488Z,8.27
2023-04-03T19:37:50.813Z,8.35
2023-04-03T19:40:17.685Z,8.17
2023-04-03T19:42:44.606Z,8.26
2023-04-03T19:45:18.123Z,8.33
2023-04-03T19:47:45.130Z,8.38
2023-04-03T19:50:11.644Z,8.32
2023-04-03T19:52:38.194Z,8.24
2023-04-03T19:55:06.361Z,8.12
2023-04-03T19:57:33.342Z,8.10
2023-04-03T20:00:02.781Z,8.02
2023-04-03T20:02:31.671Z,8.04
2023-04-03T20:04:58.496Z,8.04
2023-04-03T20:07:30.238Z,8.14
2023-04-03T20:09:56.817Z,8.07
2023-04-03T20:12:23.409Z,8.05
2023-04-03T20:14:55.893Z,8.05
2023-04-03T20:17:22.371Z,7.97
2023-04-03T20:20:03.624Z,7.94
2023-04-03T20:22:39.205Z,7.96
2023-04-03T20:25:10.595Z,7.93
2023-04-03T20:27:42.283Z,8.04
2023-04-03T20:30:13.264Z,8.03
2023-04-03T20:32:40.134Z,7.90
2023-04-03T20:35:09.675Z,7.81
2023-04-03T20:37:36.951Z,7.68
2023-04-03T20:40:05.365Z,7.57
2023-04-03T20:42:31.960Z,7.59
2023-04-03T20:44:58.471Z,7.78
2023-04-03T20:47:25.116Z,7.84
2023-04-03T20:49:55.542Z,7.86
2023-04-03T20:52:24.294Z,7.77
2023-04-03T20:54:52.802Z,7.66
2023-04-03T20:57:20.965Z,7.68
2023-04-03T20:59:56.318Z,7.70
2023-04-03T21:02:22.884Z,7.70
2023-04-03T21:04:53.999Z,7.60
2023-04-03T21:07:41.596Z,7.62
2023-04-03T21:10:28.403Z,7.56
2023-04-03T21:13:13.737Z,7.57
2023-04-03T21:15:51.918Z,7.63
2023-04-03T21:18:27.487Z,7.50
2023-04-03T21:20:58.067Z,7.47
2023-04-03T21:23:26.218Z,7.47
2023-04-03T21:25:52.755Z,7.45
2023-04-03T21:28:23.028Z,7.43
2023-04-03T21:30:52.864Z,7.45
2023-04-03T21:33:21.198Z,7.46
2023-04-03T21:35:48.300Z,7.36
2023-04-03T21:38:17.356Z,7.40
2023-04-03T21:40:50.579Z,7.39
2023-04-03T21:43:22.767Z,7.41
2023-04-03T21:45:52.794Z,7.35
2023-04-03T21:48:22.496Z,7.35
2023-04-03T21:50:51.862Z,7.42
2023-04-03T21:53:19.254Z,7.38
2023-04-03T21:55:54.738Z,7.31
2023-04-03T21:58:21.657Z,7.26
2023-04-03T22:00:48.254Z,7.31
2023-04-03T22:03:26.389Z,7.33
2023-04-03T22:05:53.775Z,7.31
2023-04-03T22:08:20.333Z,7.28
2023-04-03T22:10:50.803Z,7.21
2023-04-03T22:13:19.696Z,7.21
2023-04-03T22:15:49.242Z,7.23
2023-04-03T22:18:17.850Z,7.19
2023-04-03T22:20:44.402Z,7.21
2023-04-03T22:23:19.051Z,7.19
2023-04-03T22:26:05.874Z,7.17
2023-04-03T22:28:36.628Z,7.23
2023-04-03T22:31:13.586Z,7.21
2023-04-03T22:33:43.072Z,7.15
2023-04-03T22:36:11.151Z,7.02
2023-04-03T22:38:38.884Z,6.94
2023-04-03T22:41:08.592Z,6.99
2023-04-03T22:43:40.414Z,6.88
2023-04-03T22:46:08.703Z,6.91
2023-04-03T22:48:37.237Z,6.82
2023-04-03T22:51:09.947Z,6.83
2023-04-03T22:53:36.884Z,6.83
2023-04-03T22:56:04.947Z,6.83
2023-04-03T22:58:31.535Z,6.83
2023-04-03T23:01:07.702Z,6.78
2023-04-03T23:03:41.391Z,6.71
2023-04-03T23:06:09.204Z,6.68
2023-04-03T23:08:39.639Z,6.65
2023-04-03T23:11:12.378Z,6.63
2023-04-03T23:13:38.970Z,6.70
2023-04-03T23:16:05.693Z,6.66
2023-04-03T23:18:35.733Z,6.67
2023-04-03T23:21:05.364Z,6.62
2023-04-03T23:23:32.192Z,6.62
2023-04-03T23:25:59.885Z,6.54
2023-04-03T23:28:29.881Z,6.49
2023-04-03T23:31:08.696Z,6.48
2023-04-03T23:33:36.748Z,6.49
2023-04-03T23:36:07.447Z,6.45
2023-04-03T23:38:34.872Z,6.41
2023-04-03T23:41:01.524Z,6.40
2023-04-03T23:43:32.108Z,6.35
2023-04-03T23:45:58.918Z,6.35
2023-04-03T23:48:26.158Z,6.33
2023-04-03T23:50:54.193Z,6.37
2023-04-03T23:53:20.631Z,6.45
2023-04-03T23:55:50.254Z,6.44
2023-04-03T23:58:16.745Z,6.34
